sensor_id;sensor_type;location;lat;lon;timestamp;temperature;humidity
55091;DHT22;40985;53.180;5.800;2022-07-17T00:00:51;11.20;99.90
55091;DHT22;40985;53.180;5.800;2022-07-17T00:03:18;11.20;99.90
55091;DHT22;40985;53.180;5.800;2022-07-17T00:05:44;11.10;99.90
55091;DHT22;40985;53.180;5.800;2022-07-17T00:08:11;11.10;99.90
55091;DHT22;40985;53.180;5.800;2022-07-17T00:10:39;11.00;99.90
55091;DHT22;40985;53.180;5.800;2022-07-17T00:13:06;11.10;99.90
55091;DHT22;40985;53.180;5.800;2022-07-17T00:15:32;11.00;99.90
55091;DHT22;40985;53.180;5.800;2022-07-17T00:17:59;11.00;99.90
55091;DHT22;40985;53.180;5.800;2022-07-17T00:20:25;10.90;99.90
55091;DHT22;40985;53.180;5.800;2022-07-17T00:22:52;10.90;99.90
55091;DHT22;40985;53.180;5.800;2022-07-17T00:25:20;10.90;99.90
55091;DHT22;40985;53.180;5.800;2022-07-17T00:27:46;10.90;99.90
55091;DHT22;40985;53.180;5.800;2022-07-17T00:30:12;10.90;99.90
55091;DHT22;40985;53.180;5.800;2022-07-17T00:32:38;10.90;99.90
55091;DHT22;40985;53.180;5.800;2022-07-17T00:35:04;10.80;99.90
55091;DHT22;40985;53.180;5.800;2022-07-17T00:37:30;10.80;99.90
55091;DHT22;40985;53.180;5.800;2022-07-17T00:39:56;10.80;99.90
55091;DHT22;40985;53.180;5.800;2022-07-17T00:42:22;10.70;99.90
55091;DHT22;40985;53.180;5.800;2022-07-17T00:44:47;10.80;99.90
55091;DHT22;40985;53.180;5.800;2022-07-17T00:47:14;10.70;99.90
55091;DHT22;40985;53.180;5.800;2022-07-17T00:49:40;10.70;99.90
55091;DHT22;40985;53.180;5.800;2022-07-17T00:52:08;10.70;99.90
55091;DHT22;40985;53.180;5.800;2022-07-17T00:54:36;10.60;99.90
55091;DHT22;40985;53.180;5.800;2022-07-17T00:57:09;10.60;99.90
55091;DHT22;40985;53.180;5.800;2022-07-17T00:59:35;10.60;99.90
55091;DHT22;40985;53.180;5.800;2022-07-17T01:02:05;10.60;99.90
55091;DHT22;40985;53.180;5.800;2022-07-17T01:04:32;10.60;99.90
55091;DHT22;40985;53.180;5.800;2022-07-17T01:06:59;10.60;99.90
55091;DHT22;40985;53.180;5.800;2022-07-17T01:09:26;10.50;99.90
55091;DHT22;40985;53.180;5.800;2022-07-17T01:11:53;10.50;99.90
55091;DHT22;40985;53.180;5.800;2022-07-17T01:14:19;10.50;99.90
55091;DHT22;40985;53.180;5.800;2022-07-17T01:16:44;10.50;99.90
55091;DHT22;40985;53.180;5.800;2022-07-17T01:19:11;10.40;99.90
55091;DHT22;40985;53.180;5.800;2022-07-17T01:21:42;10.40;99.90
55091;DHT22;40985;53.180;5.800;2022-07-17T01:24:08;10.40;99.90
55091;DHT22;40985;53.180;5.800;2022-07-17T01:26:33;10.40;99.90
55091;DHT22;40985;53.180;5.800;2022-07-17T01:28:59;10.40;99.90
55091;DHT22;40985;53.180;5.800;2022-07-17T01:31:25;10.40;99.90
55091;DHT22;40985;53.180;5.800;2022-07-17T01:33:51;10.40;99.90
55091;DHT22;40985;53.180;5.800;2022-07-17T01:36:24;10.40;99.90
55091;DHT22;40985;53.180;5.800;2022-07-17T01:38:50;10.40;99.90
55091;DHT22;40985;53.180;5.800;2022-07-17T01:41:16;10.40;99.90
55091;DHT22;40985;53.180;5.800;2022-07-17T01:43:42;10.40;99.90
55091;DHT22;40985;53.180;5.800;2022-07-17T01:46:08;10.40;99.90
55091;DHT22;40985;53.180;5.800;2022-07-17T01:48:33;10.50;99.90
55091;DHT22;40985;53.180;5.800;2022-07-17T01:50:59;10.50;99.90
55091;DHT22;40985;53.180;5.800;2022-07-17T01:53:25;10.50;99.90
55091;DHT22;40985;53.180;5.800;2022-07-17T01:55:51;10.50;99.90
55091;DHT22;40985;53.180;5.800;2022-07-17T01:58:16;10.50;99.90
55091;DHT22;40985;53.180;5.800;2022-07-17T02:00:42;10.50;99.90
55091;DHT22;40985;53.180;5.800;2022-07-17T02:03:08;10.60;99.90
55091;DHT22;40985;53.180;5.800;2022-07-17T02:05:34;10.50;99.90
55091;DHT22;40985;53.180;5.800;2022-07-17T02:08:00;10.50;99.90
55091;DHT22;40985;53.180;5.800;2022-07-17T02:10:25;10.40;99.90
55091;DHT22;40985;53.180;5.800;2022-07-17T02:12:51;10.50;99.90
55091;DHT22;40985;53.180;5.800;2022-07-17T02:15:17;10.40;99.90
55091;DHT22;40985;53.180;5.800;2022-07-17T02:17:42;10.40;99.90
55091;DHT22;40985;53.180;5.800;2022-07-17T02:20:09;10.40;99.90
55091;DHT22;40985;53.180;5.800;2022-07-17T02:22:35;10.30;99.90
55091;DHT22;40985;53.180;5.800;2022-07-17T02:25:01;10.30;99.90
55091;DHT22;40985;53.180;5.800;2022-07-17T02:27:26;10.20;99.90
55091;DHT22;40985;53.180;5.800;2022-07-17T02:29:52;10.20;99.90
55091;DHT22;40985;53.180;5.800;2022-07-17T02:32:18;10.30;99.90
55091;DHT22;40985;53.180;5.800;2022-07-17T02:34:43;10.20;99.90
55091;DHT22;40985;53.180;5.800;2022-07-17T02:37:09;10.20;99.90
55091;DHT22;40985;53.180;5.800;2022-07-17T02:39:35;10.20;99.90
55091;DHT22;40985;53.180;5.800;2022-07-17T02:42:01;10.20;99.90
55091;DHT22;40985;53.180;5.800;2022-07-17T02:44:27;10.20;99.90
55091;DHT22;40985;53.180;5.800;2022-07-17T02:46:52;10.20;99.90
55091;DHT22;40985;53.180;5.800;2022-07-17T02:49:18;10.20;99.90
55091;DHT22;40985;53.180;5.800;2022-07-17T02:51:43;10.20;99.90
55091;DHT22;40985;53.180;5.800;2022-07-17T02:54:09;10.10;99.90
55091;DHT22;40985;53.180;5.800;2022-07-17T02:56:35;10.10;99.90
55091;DHT22;40985;53.180;5.800;2022-07-17T02:59:00;10.10;99.90
55091;DHT22;40985;53.180;5.800;2022-07-17T03:01:26;10.00;99.90
55091;DHT22;40985;53.180;5.800;2022-07-17T03:03:52;10.10;99.90
55091;DHT22;40985;53.180;5.800;2022-07-17T03:06:17;10.00;99.90
55091;DHT22;40985;53.180;5.800;2022-07-17T03:08:43;10.00;99.90
55091;DHT22;40985;53.180;5.800;2022-07-17T03:11:08;10.00;99.90
55091;DHT22;40985;53.180;5.800;2022-07-17T03:13:34;10.00;99.90
55091;DHT22;40985;53.180;5.800;2022-07-17T03:16:00;10.10;99.90
55091;DHT22;40985;53.180;5.800;2022-07-17T03:18:25;10.10;99.90
55091;DHT22;40985;53.180;5.800;2022-07-17T03:20:51;10.10;99.90
55091;DHT22;40985;53.180;5.800;2022-07-17T03:23:17;10.10;99.90
55091;DHT22;40985;53.180;5.800;2022-07-17T03:25:42;10.10;99.90
55091;DHT22;40985;53.180;5.800;2022-07-17T03:28:08;10.10;99.90
55091;DHT22;40985;53.180;5.800;2022-07-17T03:30:34;10.10;99.90
55091;DHT22;40985;53.180;5.800;2022-07-17T03:32:59;10.10;99.90
55091;DHT22;40985;53.180;5.800;2022-07-17T03:35:25;10.10;99.90
55091;DHT22;40985;53.180;5.800;2022-07-17T03:37:51;10.10;99.90
55091;DHT22;40985;53.180;5.800;2022-07-17T03:40:16;10.20;99.90
55091;DHT22;40985;53.180;5.800;2022-07-17T03:42:42;10.20;99.90
55091;DHT22;40985;53.180;5.800;2022-07-17T03:45:08;10.30;99.90
55091;DHT22;40985;53.180;5.800;2022-07-17T03:47:34;10.30;99.90
55091;DHT22;40985;53.180;5.800;2022-07-17T03:50:00;10.30;99.90
55091;DHT22;40985;53.180;5.800;2022-07-17T03:52:25;10.40;99.90
55091;DHT22;40985;53.180;5.800;2022-07-17T03:54:51;10.50;99.90
55091;DHT22;40985;53.180;5.800;2022-07-17T03:57:16;10.50;99.90
55091;DHT22;40985;53.180;5.800;2022-07-17T03:59:42;10.50;99.90
55091;DHT22;40985;53.180;5.800;2022-07-17T04:02:08;10.60;99.90
55091;DHT22;40985;53.180;5.800;2022-07-17T04:04:33;10.60;99.90
55091;DHT22;40985;53.180;5.800;2022-07-17T04:06:59;10.70;99.90
55091;DHT22;40985;53.180;5.800;2022-07-17T04:09:25;10.70;99.90
55091;DHT22;40985;53.180;5.800;2022-07-17T04:11:50;10.70;99.90
55091;DHT22;40985;53.180;5.800;2022-07-17T04:14:16;10.80;99.90
55091;DHT22;40985;53.180;5.800;2022-07-17T04:16:41;10.80;99.90
55091;DHT22;40985;53.180;5.800;2022-07-17T04:19:07;10.90;99.90
55091;DHT22;40985;53.180;5.800;2022-07-17T04:21:33;11.00;99.90
55091;DHT22;40985;53.180;5.800;2022-07-17T04:23:58;11.00;99.90
55091;DHT22;40985;53.180;5.800;2022-07-17T04:26:24;11.00;99.90
55091;DHT22;40985;53.180;5.800;2022-07-17T04:28:50;11.10;99.90
55091;DHT22;40985;53.180;5.800;2022-07-17T04:31:15;11.20;99.90
55091;DHT22;40985;53.180;5.800;2022-07-17T04:33:41;11.20;99.90
55091;DHT22;40985;53.180;5.800;2022-07-17T04:36:07;11.20;99.90
55091;DHT22;40985;53.180;5.800;2022-07-17T04:38:32;11.30;99.90
55091;DHT22;40985;53.180;5.800;2022-07-17T04:40:58;11.40;99.90
55091;DHT22;40985;53.180;5.800;2022-07-17T04:43:24;11.40;99.90
55091;DHT22;40985;53.180;5.800;2022-07-17T04:45:50;11.50;99.90
55091;DHT22;40985;53.180;5.800;2022-07-17T04:48:15;11.50;99.90
55091;DHT22;40985;53.180;5.800;2022-07-17T04:50:41;11.60;99.90
55091;DHT22;40985;53.180;5.800;2022-07-17T04:53:07;11.60;99.90
55091;DHT22;40985;53.180;5.800;2022-07-17T04:55:32;11.70;99.90
55091;DHT22;40985;53.180;5.800;2022-07-17T04:57:58;11.70;99.90
55091;DHT22;40985;53.180;5.800;2022-07-17T05:00:24;11.80;99.90
55091;DHT22;40985;53.180;5.800;2022-07-17T05:02:49;11.80;99.90
55091;DHT22;40985;53.180;5.800;2022-07-17T05:05:15;11.90;99.90
55091;DHT22;40985;53.180;5.800;2022-07-17T05:07:41;11.90;99.90
55091;DHT22;40985;53.180;5.800;2022-07-17T05:10:07;12.00;99.90
55091;DHT22;40985;53.180;5.800;2022-07-17T05:12:34;12.00;99.90
55091;DHT22;40985;53.180;5.800;2022-07-17T05:15:00;12.00;99.90
55091;DHT22;40985;53.180;5.800;2022-07-17T05:17:26;12.10;99.90
55091;DHT22;40985;53.180;5.800;2022-07-17T05:19:52;12.20;99.90
55091;DHT22;40985;53.180;5.800;2022-07-17T05:22:18;12.20;99.90
55091;DHT22;40985;53.180;5.800;2022-07-17T05:24:43;12.30;99.90
55091;DHT22;40985;53.180;5.800;2022-07-17T05:27:09;12.30;99.90
55091;DHT22;40985;53.180;5.800;2022-07-17T05:29:35;12.40;99.90
55091;DHT22;40985;53.180;5.800;2022-07-17T05:32:01;12.40;99.90
55091;DHT22;40985;53.180;5.800;2022-07-17T05:34:27;12.50;99.90
55091;DHT22;40985;53.180;5.800;2022-07-17T05:36:53;12.60;99.90
55091;DHT22;40985;53.180;5.800;2022-07-17T05:39:18;12.70;99.90
55091;DHT22;40985;53.180;5.800;2022-07-17T05:41:44;12.80;99.90
55091;DHT22;40985;53.180;5.800;2022-07-17T05:44:10;12.90;99.90
55091;DHT22;40985;53.180;5.800;2022-07-17T05:46:35;12.90;99.90
55091;DHT22;40985;53.180;5.800;2022-07-17T05:49:01;13.00;99.90
55091;DHT22;40985;53.180;5.800;2022-07-17T05:51:27;13.10;99.90
55091;DHT22;40985;53.180;5.800;2022-07-17T05:53:53;13.10;99.90
55091;DHT22;40985;53.180;5.800;2022-07-17T05:56:18;13.20;99.90
55091;DHT22;40985;53.180;5.800;2022-07-17T05:58:45;13.30;99.90
55091;DHT22;40985;53.180;5.800;2022-07-17T06:01:10;13.40;99.90
55091;DHT22;40985;53.180;5.800;2022-07-17T06:03:36;13.50;99.90
55091;DHT22;40985;53.180;5.800;2022-07-17T06:06:01;13.60;99.90
55091;DHT22;40985;53.180;5.800;2022-07-17T06:08:27;13.60;99.90
55091;DHT22;40985;53.180;5.800;2022-07-17T06:10:53;13.70;99.90
55091;DHT22;40985;53.180;5.800;2022-07-17T06:13:18;13.80;99.90
55091;DHT22;40985;53.180;5.800;2022-07-17T06:15:44;13.80;99.90
55091;DHT22;40985;53.180;5.800;2022-07-17T06:18:10;13.90;99.90
55091;DHT22;40985;53.180;5.800;2022-07-17T06:20:35;14.00;99.90
55091;DHT22;40985;53.180;5.800;2022-07-17T06:23:01;14.10;99.90
55091;DHT22;40985;53.180;5.800;2022-07-17T06:25:26;14.20;99.90
55091;DHT22;40985;53.180;5.800;2022-07-17T06:27:52;14.20;99.90
55091;DHT22;40985;53.180;5.800;2022-07-17T06:30:18;14.30;99.90
55091;DHT22;40985;53.180;5.800;2022-07-17T06:32:43;14.30;99.90
55091;DHT22;40985;53.180;5.800;2022-07-17T06:35:10;14.40;99.90
55091;DHT22;40985;53.180;5.800;2022-07-17T06:37:36;14.40;99.90
55091;DHT22;40985;53.180;5.800;2022-07-17T06:40:02;14.50;99.90
55091;DHT22;40985;53.180;5.800;2022-07-17T06:42:28;14.50;99.90
55091;DHT22;40985;53.180;5.800;2022-07-17T06:44:54;14.60;99.90
55091;DHT22;40985;53.180;5.800;2022-07-17T06:47:20;14.70;99.90
55091;DHT22;40985;53.180;5.800;2022-07-17T06:49:45;14.70;99.90
55091;DHT22;40985;53.180;5.800;2022-07-17T06:52:11;14.80;99.90
55091;DHT22;40985;53.180;5.800;2022-07-17T06:54:37;14.80;99.90
55091;DHT22;40985;53.180;5.800;2022-07-17T06:57:03;14.90;99.90
55091;DHT22;40985;53.180;5.800;2022-07-17T06:59:29;14.90;99.90
55091;DHT22;40985;53.180;5.800;2022-07-17T07:01:54;15.00;99.90
55091;DHT22;40985;53.180;5.800;2022-07-17T07:04:20;15.00;99.90
55091;DHT22;40985;53.180;5.800;2022-07-17T07:06:46;15.10;99.90
55091;DHT22;40985;53.180;5.800;2022-07-17T07:09:12;15.10;99.90
55091;DHT22;40985;53.180;5.800;2022-07-17T07:11:38;15.10;99.90
55091;DHT22;40985;53.180;5.800;2022-07-17T07:14:05;15.10;99.90
55091;DHT22;40985;53.180;5.800;2022-07-17T07:16:30;15.00;99.90
55091;DHT22;40985;53.180;5.800;2022-07-17T07:18:56;15.00;99.90
55091;DHT22;40985;53.180;5.800;2022-07-17T07:21:22;15.00;99.90
55091;DHT22;40985;53.180;5.800;2022-07-17T07:23:50;15.10;99.90
55091;DHT22;40985;53.180;5.800;2022-07-17T07:26:16;15.10;99.90
55091;DHT22;40985;53.180;5.800;2022-07-17T07:28:42;15.20;99.90
55091;DHT22;40985;53.180;5.800;2022-07-17T07:31:07;15.20;99.90
55091;DHT22;40985;53.180;5.800;2022-07-17T07:33:33;15.20;99.90
55091;DHT22;40985;53.180;5.800;2022-07-17T07:35:59;15.20;99.90
55091;DHT22;40985;53.180;5.800;2022-07-17T07:38:25;15.30;99.90
55091;DHT22;40985;53.180;5.800;2022-07-17T07:40:50;15.40;99.90
55091;DHT22;40985;53.180;5.800;2022-07-17T07:43:16;15.50;99.90
55091;DHT22;40985;53.180;5.800;2022-07-17T07:45:42;15.50;99.90
55091;DHT22;40985;53.180;5.800;2022-07-17T07:48:08;15.60;99.90
55091;DHT22;40985;53.180;5.800;2022-07-17T07:50:34;15.70;99.90
55091;DHT22;40985;53.180;5.800;2022-07-17T07:53:00;15.80;99.90
55091;DHT22;40985;53.180;5.800;2022-07-17T07:55:25;15.80;99.90
55091;DHT22;40985;53.180;5.800;2022-07-17T07:58:08;15.90;99.90
55091;DHT22;40985;53.180;5.800;2022-07-17T08:00:35;16.10;99.90
55091;DHT22;40985;53.180;5.800;2022-07-17T08:03:01;16.10;99.90
55091;DHT22;40985;53.180;5.800;2022-07-17T08:05:27;16.10;99.90
55091;DHT22;40985;53.180;5.800;2022-07-17T08:07:53;16.20;99.90
55091;DHT22;40985;53.180;5.800;2022-07-17T08:10:18;16.20;99.90
55091;DHT22;40985;53.180;5.800;2022-07-17T08:12:44;16.30;99.90
55091;DHT22;40985;53.180;5.800;2022-07-17T08:15:10;16.40;99.90
55091;DHT22;40985;53.180;5.800;2022-07-17T08:17:36;16.50;99.90
55091;DHT22;40985;53.180;5.800;2022-07-17T08:20:02;16.60;99.90
55091;DHT22;40985;53.180;5.800;2022-07-17T08:22:28;16.70;99.90
55091;DHT22;40985;53.180;5.800;2022-07-17T08:24:54;16.70;99.90
55091;DHT22;40985;53.180;5.800;2022-07-17T08:27:19;16.90;99.90
55091;DHT22;40985;53.180;5.800;2022-07-17T08:29:45;17.00;99.90
55091;DHT22;40985;53.180;5.800;2022-07-17T08:32:11;17.10;99.90
55091;DHT22;40985;53.180;5.800;2022-07-17T08:34:36;17.20;99.90
55091;DHT22;40985;53.180;5.800;2022-07-17T08:37:02;17.20;99.90
55091;DHT22;40985;53.180;5.800;2022-07-17T08:39:28;17.40;99.90
55091;DHT22;40985;53.180;5.800;2022-07-17T08:41:54;17.40;99.90
55091;DHT22;40985;53.180;5.800;2022-07-17T08:44:20;17.60;99.90
55091;DHT22;40985;53.180;5.800;2022-07-17T08:46:45;17.50;99.90
55091;DHT22;40985;53.180;5.800;2022-07-17T08:49:13;17.60;99.90
55091;DHT22;40985;53.180;5.800;2022-07-17T08:51:39;17.70;99.90
55091;DHT22;40985;53.180;5.800;2022-07-17T08:54:04;17.80;99.90
55091;DHT22;40985;53.180;5.800;2022-07-17T08:56:31;17.90;99.90
55091;DHT22;40985;53.180;5.800;2022-07-17T08:58:56;17.90;99.90
55091;DHT22;40985;53.180;5.800;2022-07-17T09:01:22;17.90;99.90
55091;DHT22;40985;53.180;5.800;2022-07-17T09:03:59;18.10;99.90
55091;DHT22;40985;53.180;5.800;2022-07-17T09:06:26;18.10;99.90
55091;DHT22;40985;53.180;5.800;2022-07-17T09:09:12;18.40;99.90
55091;DHT22;40985;53.180;5.800;2022-07-17T09:11:43;18.50;99.90
55091;DHT22;40985;53.180;5.800;2022-07-17T09:14:09;18.50;99.90
55091;DHT22;40985;53.180;5.800;2022-07-17T09:16:35;18.60;99.90
55091;DHT22;40985;53.180;5.800;2022-07-17T09:19:02;18.80;99.90
55091;DHT22;40985;53.180;5.800;2022-07-17T09:21:28;18.90;99.90
55091;DHT22;40985;53.180;5.800;2022-07-17T09:26:27;18.90;99.90
55091;DHT22;40985;53.180;5.800;2022-07-17T09:28:54;19.20;99.90
55091;DHT22;40985;53.180;5.800;2022-07-17T09:31:30;19.20;99.90
55091;DHT22;40985;53.180;5.800;2022-07-17T09:33:57;19.30;99.90
55091;DHT22;40985;53.180;5.800;2022-07-17T09:36:23;19.40;99.90
55091;DHT22;40985;53.180;5.800;2022-07-17T09:38:53;19.40;99.90
55091;DHT22;40985;53.180;5.800;2022-07-17T09:41:19;19.30;99.90
55091;DHT22;40985;53.180;5.800;2022-07-17T09:43:50;19.50;99.90
55091;DHT22;40985;53.180;5.800;2022-07-17T09:48:50;19.80;99.90
55091;DHT22;40985;53.180;5.800;2022-07-17T09:51:17;19.80;99.90
55091;DHT22;40985;53.180;5.800;2022-07-17T09:53:45;20.10;99.90
55091;DHT22;40985;53.180;5.800;2022-07-17T09:56:16;20.10;99.90
55091;DHT22;40985;53.180;5.800;2022-07-17T09:58:51;20.20;99.90
55091;DHT22;40985;53.180;5.800;2022-07-17T10:01:17;20.40;99.90
55091;DHT22;40985;53.180;5.800;2022-07-17T10:03:44;20.60;99.90
55091;DHT22;40985;53.180;5.800;2022-07-17T10:06:11;20.80;99.90
55091;DHT22;40985;53.180;5.800;2022-07-17T10:08:37;20.90;99.90
55091;DHT22;40985;53.180;5.800;2022-07-17T10:11:13;20.80;99.90
55091;DHT22;40985;53.180;5.800;2022-07-17T10:13:43;21.00;99.90
55091;DHT22;40985;53.180;5.800;2022-07-17T10:16:10;20.90;99.90
55091;DHT22;40985;53.180;5.800;2022-07-17T10:18:44;20.70;99.90
55091;DHT22;40985;53.180;5.800;2022-07-17T10:21:12;21.00;99.90
55091;DHT22;40985;53.180;5.800;2022-07-17T10:23:40;21.20;99.90
55091;DHT22;40985;53.180;5.800;2022-07-17T10:26:06;21.40;99.90
55091;DHT22;40985;53.180;5.800;2022-07-17T10:31:08;21.50;99.90
55091;DHT22;40985;53.180;5.800;2022-07-17T10:33:34;21.70;99.90
55091;DHT22;40985;53.180;5.800;2022-07-17T10:36:00;21.80;99.90
55091;DHT22;40985;53.180;5.800;2022-07-17T10:38:27;21.90;99.90
55091;DHT22;40985;53.180;5.800;2022-07-17T10:41:02;22.10;99.90
55091;DHT22;40985;53.180;5.800;2022-07-17T10:43:42;21.90;99.90
55091;DHT22;40985;53.180;5.800;2022-07-17T10:46:09;22.00;99.90
55091;DHT22;40985;53.180;5.800;2022-07-17T10:48:35;22.20;99.90
55091;DHT22;40985;53.180;5.800;2022-07-17T10:51:01;22.20;99.90
55091;DHT22;40985;53.180;5.800;2022-07-17T10:53:31;22.30;99.90
55091;DHT22;40985;53.180;5.800;2022-07-17T10:55:58;22.40;99.90
55091;DHT22;40985;53.180;5.800;2022-07-17T10:58:38;22.50;99.90
55091;DHT22;40985;53.180;5.800;2022-07-17T11:01:08;22.50;99.90
55091;DHT22;40985;53.180;5.800;2022-07-17T11:03:50;22.70;99.90
55091;DHT22;40985;53.180;5.800;2022-07-17T11:08:55;22.90;99.90
55091;DHT22;40985;53.180;5.800;2022-07-17T11:11:45;22.70;99.90
55091;DHT22;40985;53.180;5.800;2022-07-17T11:14:18;22.30;99.90
55091;DHT22;40985;53.180;5.800;2022-07-17T11:19:11;22.30;99.90
55091;DHT22;40985;53.180;5.800;2022-07-17T11:21:47;22.60;99.90
55091;DHT22;40985;53.180;5.800;2022-07-17T11:24:13;22.80;99.90
55091;DHT22;40985;53.180;5.800;2022-07-17T11:26:38;22.90;99.90
55091;DHT22;40985;53.180;5.800;2022-07-17T11:29:04;23.00;99.90
55091;DHT22;40985;53.180;5.800;2022-07-17T11:31:30;23.10;99.90
55091;DHT22;40985;53.180;5.800;2022-07-17T11:33:58;23.00;99.90
55091;DHT22;40985;53.180;5.800;2022-07-17T11:38:54;23.20;99.90
55091;DHT22;40985;53.180;5.800;2022-07-17T11:41:21;23.50;99.90
55091;DHT22;40985;53.180;5.800;2022-07-17T11:43:47;23.30;99.90
55091;DHT22;40985;53.180;5.800;2022-07-17T11:46:14;23.20;99.90
55091;DHT22;40985;53.180;5.800;2022-07-17T11:48:44;23.30;99.90
55091;DHT22;40985;53.180;5.800;2022-07-17T11:51:10;23.10;99.90
55091;DHT22;40985;53.180;5.800;2022-07-17T11:53:38;23.20;99.90
55091;DHT22;40985;53.180;5.800;2022-07-17T11:56:04;23.20;99.90
55091;DHT22;40985;53.180;5.800;2022-07-17T11:58:44;23.30;99.90
55091;DHT22;40985;53.180;5.800;2022-07-17T12:01:10;23.10;99.90
55091;DHT22;40985;53.180;5.800;2022-07-17T12:03:36;23.30;99.90
55091;DHT22;40985;53.180;5.800;2022-07-17T12:06:02;23.10;99.90
55091;DHT22;40985;53.180;5.800;2022-07-17T12:08:27;23.20;99.90
55091;DHT22;40985;53.180;5.800;2022-07-17T12:11:05;23.40;99.90
55091;DHT22;40985;53.180;5.800;2022-07-17T12:13:39;22.80;99.90
55091;DHT22;40985;53.180;5.800;2022-07-17T12:16:19;22.90;99.90
55091;DHT22;40985;53.180;5.800;2022-07-17T12:18:55;23.30;99.90
55091;DHT22;40985;53.180;5.800;2022-07-17T12:21:21;23.70;99.90
55091;DHT22;40985;53.180;5.800;2022-07-17T12:24:02;23.50;99.90
55091;DHT22;40985;53.180;5.800;2022-07-17T12:26:29;23.70;99.90
55091;DHT22;40985;53.180;5.800;2022-07-17T12:28:55;23.70;99.90
55091;DHT22;40985;53.180;5.800;2022-07-17T12:31:21;23.80;99.90
55091;DHT22;40985;53.180;5.800;2022-07-17T12:33:50;23.90;99.90
55091;DHT22;40985;53.180;5.800;2022-07-17T12:36:16;23.90;99.90
55091;DHT22;40985;53.180;5.800;2022-07-17T12:38:42;24.20;99.90
55091;DHT22;40985;53.180;5.800;2022-07-17T12:41:07;24.30;99.90
55091;DHT22;40985;53.180;5.800;2022-07-17T12:43:33;24.50;99.90
55091;DHT22;40985;53.180;5.800;2022-07-17T12:45:59;24.20;99.90
55091;DHT22;40985;53.180;5.800;2022-07-17T12:48:24;24.30;99.90
55091;DHT22;40985;53.180;5.800;2022-07-17T12:50:50;24.30;99.90
55091;DHT22;40985;53.180;5.800;2022-07-17T12:53:16;24.50;99.90
55091;DHT22;40985;53.180;5.800;2022-07-17T12:55:41;24.60;99.90
55091;DHT22;40985;53.180;5.800;2022-07-17T12:58:07;24.80;99.90
55091;DHT22;40985;53.180;5.800;2022-07-17T13:00:33;24.70;99.90
55091;DHT22;40985;53.180;5.800;2022-07-17T13:02:59;24.90;99.90
55091;DHT22;40985;53.180;5.800;2022-07-17T13:05:26;24.90;99.90
55091;DHT22;40985;53.180;5.800;2022-07-17T13:07:52;25.10;99.90
55091;DHT22;40985;53.180;5.800;2022-07-17T13:10:18;25.00;99.90
55091;DHT22;40985;53.180;5.800;2022-07-17T13:12:43;25.00;99.90
55091;DHT22;40985;53.180;5.800;2022-07-17T13:15:09;25.10;99.90
55091;DHT22;40985;53.180;5.800;2022-07-17T13:17:35;24.90;99.90
55091;DHT22;40985;53.180;5.800;2022-07-17T13:20:02;24.90;99.90
55091;DHT22;40985;53.180;5.800;2022-07-17T13:22:28;25.20;99.90
55091;DHT22;40985;53.180;5.800;2022-07-17T13:24:54;25.40;99.90
55091;DHT22;40985;53.180;5.800;2022-07-17T13:27:20;25.30;99.90
55091;DHT22;40985;53.180;5.800;2022-07-17T13:29:45;25.20;99.90
55091;DHT22;40985;53.180;5.800;2022-07-17T13:32:12;25.20;99.90
55091;DHT22;40985;53.180;5.800;2022-07-17T13:34:37;25.30;99.90
55091;DHT22;40985;53.180;5.800;2022-07-17T13:37:03;25.20;99.90
55091;DHT22;40985;53.180;5.800;2022-07-17T13:39:29;25.00;99.90
55091;DHT22;40985;53.180;5.800;2022-07-17T13:41:54;25.00;99.90
55091;DHT22;40985;53.180;5.800;2022-07-17T13:44:20;25.00;99.90
55091;DHT22;40985;53.180;5.800;2022-07-17T13:46:46;25.10;99.90
55091;DHT22;40985;53.180;5.800;2022-07-17T13:49:11;25.10;99.90
55091;DHT22;40985;53.180;5.800;2022-07-17T13:51:37;25.10;99.90
55091;DHT22;40985;53.180;5.800;2022-07-17T13:54:05;25.10;99.90
55091;DHT22;40985;53.180;5.800;2022-07-17T13:56:32;25.20;99.90
55091;DHT22;40985;53.180;5.800;2022-07-17T13:58:58;25.20;99.90
55091;DHT22;40985;53.180;5.800;2022-07-17T14:01:24;25.20;99.90
55091;DHT22;40985;53.180;5.800;2022-07-17T14:03:50;25.00;99.90
55091;DHT22;40985;53.180;5.800;2022-07-17T14:06:16;25.20;99.90
55091;DHT22;40985;53.180;5.800;2022-07-17T14:08:42;25.20;99.90
55091;DHT22;40985;53.180;5.800;2022-07-17T14:11:10;24.80;99.90
55091;DHT22;40985;53.180;5.800;2022-07-17T14:13:37;24.70;99.90
55091;DHT22;40985;53.180;5.800;2022-07-17T14:16:02;24.80;99.90
55091;DHT22;40985;53.180;5.800;2022-07-17T14:18:28;24.90;99.90
55091;DHT22;40985;53.180;5.800;2022-07-17T14:20:54;25.00;99.90
55091;DHT22;40985;53.180;5.800;2022-07-17T14:23:20;25.20;99.90
55091;DHT22;40985;53.180;5.800;2022-07-17T14:25:45;25.00;99.90
55091;DHT22;40985;53.180;5.800;2022-07-17T14:28:11;25.20;99.90
55091;DHT22;40985;53.180;5.800;2022-07-17T14:30:37;25.10;99.90
55091;DHT22;40985;53.180;5.800;2022-07-17T14:33:03;24.90;99.90
55091;DHT22;40985;53.180;5.800;2022-07-17T14:35:29;24.90;99.90
55091;DHT22;40985;53.180;5.800;2022-07-17T14:37:57;25.00;99.90
55091;DHT22;40985;53.180;5.800;2022-07-17T14:40:22;25.00;99.90
55091;DHT22;40985;53.180;5.800;2022-07-17T14:42:49;25.10;99.90
55091;DHT22;40985;53.180;5.800;2022-07-17T14:45:15;25.10;99.90
55091;DHT22;40985;53.180;5.800;2022-07-17T14:47:40;25.10;99.90
55091;DHT22;40985;53.180;5.800;2022-07-17T14:50:07;25.20;99.90
55091;DHT22;40985;53.180;5.800;2022-07-17T14:52:33;25.10;99.90
55091;DHT22;40985;53.180;5.800;2022-07-17T14:54:59;25.10;99.90
55091;DHT22;40985;53.180;5.800;2022-07-17T14:57:24;25.00;99.90
55091;DHT22;40985;53.180;5.800;2022-07-17T14:59:50;24.80;99.90
55091;DHT22;40985;53.180;5.800;2022-07-17T15:02:16;24.70;99.90
55091;DHT22;40985;53.180;5.800;2022-07-17T15:04:41;24.70;99.90
55091;DHT22;40985;53.180;5.800;2022-07-17T15:07:07;24.60;99.90
55091;DHT22;40985;53.180;5.800;2022-07-17T15:09:33;24.40;99.90
55091;DHT22;40985;53.180;5.800;2022-07-17T15:11:59;24.30;99.90
55091;DHT22;40985;53.180;5.800;2022-07-17T15:14:25;24.20;99.90
55091;DHT22;40985;53.180;5.800;2022-07-17T15:16:51;24.20;99.90
55091;DHT22;40985;53.180;5.800;2022-07-17T15:19:16;24.00;99.90
55091;DHT22;40985;53.180;5.800;2022-07-17T15:21:42;24.00;99.90
55091;DHT22;40985;53.180;5.800;2022-07-17T15:24:08;24.30;99.90
55091;DHT22;40985;53.180;5.800;2022-07-17T15:26:33;24.40;99.90
55091;DHT22;40985;53.180;5.800;2022-07-17T15:28:59;24.40;99.90
55091;DHT22;40985;53.180;5.800;2022-07-17T15:31:25;24.20;99.90
55091;DHT22;40985;53.180;5.800;2022-07-17T15:33:51;24.10;99.90
55091;DHT22;40985;53.180;5.800;2022-07-17T15:36:17;24.00;99.90
55091;DHT22;40985;53.180;5.800;2022-07-17T15:38:58;24.00;99.90
55091;DHT22;40985;53.180;5.800;2022-07-17T15:41:25;24.00;99.90